Time;durP1;ratioP1;P1;durP2;ratioP2;P2;SDS_P1;SDS_P2;PMS_P1;PMS_P2;Temp;Humidity;BMP_temperature;BMP_pressure;BME280_temperature;BME280_humidity;BME280_pressure;Samples;Min_cycle;Max_cycle;Signal;HPM_P1;HPM_P2
2023/07/29 00:00:07;;;;;;;1.33;1.23;;;22.70;64.50;;;;;;4996451;28;20225;-78
2023/07/29 00:02:39;;;;;;;1.77;1.23;;;22.70;64.50;;;;;;5014869;28;20181;-78
2023/07/29 00:05:06;;;;;;;1.35;1.25;;;22.70;64.50;;;;;;5015084;28;20185;-78
2023/07/29 00:07:34;;;;;;;1.70;1.50;;;22.70;64.50;;;;;;5002050;28;20196;-78
2023/07/29 00:10:03;;;;;;;1.45;1.35;;;22.60;64.30;;;;;;5008895;28;20231;-78
2023/07/29 00:12:30;;;;;;;1.48;1.38;;;22.60;64.40;;;;;;4996423;28;20664;-79
2023/07/29 00:14:59;;;;;;;1.20;1.10;;;22.60;64.40;;;;;;5023631;22;20647;-82
2023/07/29 00:17:26;;;;;;;1.98;1.30;;;22.60;64.30;;;;;;5016898;28;20200;-83
2023/07/29 00:19:54;;;;;;;1.98;1.20;;;22.60;64.30;;;;;;5016517;28;20288;-83
2023/07/29 00:22:21;;;;;;;2.53;1.40;;;22.50;64.30;;;;;;5016327;28;20238;-83
2023/07/29 00:24:53;;;;;;;2.03;1.10;;;22.60;64.40;;;;;;5032788;28;20207;-83
2023/07/29 00:27:20;;;;;;;2.17;1.30;;;22.50;64.30;;;;;;5033073;28;20207;-82
2023/07/29 00:29:49;;;;;;;1.35;1.00;;;22.50;64.30;;;;;;5035489;28;20203;-83
2023/07/29 00:32:17;;;;;;;1.30;1.20;;;22.50;64.40;;;;;;5039088;28;20200;-83
2023/07/29 00:34:45;;;;;;;1.33;1.23;;;22.50;64.50;;;;;;5038695;28;20303;-83
2023/07/29 00:37:12;;;;;;;2.15;1.23;;;22.50;64.60;;;;;;5038168;28;20195;-83
2023/07/29 00:39:40;;;;;;;2.25;1.10;;;22.60;64.60;;;;;;5037756;28;20213;-83
2023/07/29 00:42:07;;;;;;;2.00;1.45;;;22.50;64.40;;;;;;5037962;28;20618;-83
2023/07/29 00:44:34;;;;;;;2.70;1.30;;;22.50;64.60;;;;;;5037520;28;20200;-83
2023/07/29 00:47:02;;;;;;;1.60;1.10;;;22.50;64.40;;;;;;5038174;28;20267;-83
2023/07/29 00:49:30;;;;;;;1.83;1.30;;;22.50;64.40;;;;;;5039455;28;20269;-83
2023/07/29 00:51:57;;;;;;;1.20;1.10;;;22.50;64.40;;;;;;5038983;28;20216;-83
2023/07/29 00:54:26;;;;;;;1.75;1.23;;;22.50;64.50;;;;;;5038565;28;20208;-82
2023/07/29 00:56:53;;;;;;;1.83;1.20;;;22.50;64.50;;;;;;5037302;28;20705;-83
2023/07/29 00:59:21;;;;;;;1.20;1.10;;;22.50;64.50;;;;;;5037164;28;20202;-83
2023/07/29 01:01:48;;;;;;;1.15;1.05;;;22.50;64.50;;;;;;5037093;28;20220;-83
2023/07/29 01:04:15;;;;;;;1.85;1.08;;;22.40;64.50;;;;;;5037835;28;20184;-83
2023/07/29 01:06:47;;;;;;;1.00;1.00;;;22.50;64.60;;;;;;5036254;28;20681;-83
2023/07/29 01:09:18;;;;;;;3.22;1.13;;;22.50;64.60;;;;;;5036282;28;20192;-83
2023/07/29 01:11:47;;;;;;;3.67;1.30;;;22.40;64.50;;;;;;5036349;28;20216;-83
2023/07/29 01:14:21;;;;;;;2.28;1.25;;;22.40;64.40;;;;;;5036272;28;20207;-83
2023/07/29 01:16:53;;;;;;;1.27;1.17;;;22.40;64.60;;;;;;5020231;28;20713;-83
2023/07/29 01:19:27;;;;;;;1.80;1.13;;;22.40;64.60;;;;;;5036521;28;20283;-83
2023/07/29 01:21:56;;;;;;;1.25;1.17;;;22.50;64.70;;;;;;5036681;28;20227;-83
2023/07/29 01:24:25;;;;;;;1.98;1.30;;;22.40;64.60;;;;;;5037156;28;20242;-83
2023/07/29 01:26:53;;;;;;;1.92;1.20;;;22.40;64.70;;;;;;5036655;28;20207;-83
2023/07/29 01:29:20;;;;;;;2.67;1.23;;;22.40;64.70;;;;;;5036534;28;20709;-83
2023/07/29 01:31:48;;;;;;;1.30;1.20;;;22.40;64.70;;;;;;5036350;28;20216;-83
2023/07/29 01:34:18;;;;;;;1.70;1.23;;;22.30;64.50;;;;;;5036124;28;20226;-83
2023/07/29 01:36:46;;;;;;;1.20;1.10;;;22.40;64.70;;;;;;5036373;28;20239;-83
2023/07/29 01:39:13;;;;;;;2.28;1.20;;;22.40;64.70;;;;;;5020160;28;20200;-83
2023/07/29 01:41:41;;;;;;;1.05;1.05;;;22.40;64.80;;;;;;5036083;28;20220;-83
2023/07/29 01:44:09;;;;;;;1.20;1.10;;;22.40;64.90;;;;;;5037860;28;20211;-83
2023/07/29 01:46:36;;;;;;;1.77;1.02;;;22.40;64.90;;;;;;5037349;28;20196;-83
2023/07/29 01:49:03;;;;;;;1.63;1.00;;;22.40;64.90;;;;;;5036763;28;20639;-83
2023/07/29 01:51:32;;;;;;;1.30;1.20;;;22.40;64.90;;;;;;5058426;28;20211;-83
2023/07/29 01:53:59;;;;;;;1.30;1.00;;;22.40;64.90;;;;;;5035573;28;20223;-83
2023/07/29 01:56:27;;;;;;;1.10;1.00;;;22.30;64.90;;;;;;5035548;28;20192;-83
2023/07/29 01:58:57;;;;;;;1.90;1.20;;;22.30;64.90;;;;;;5035640;28;20192;-83
2023/07/29 02:01:25;;;;;;;1.65;1.10;;;22.40;65.00;;;;;;5035901;28;20223;-83
2023/07/29 02:03:55;;;;;;;2.28;1.40;;;22.40;65.00;;;;;;5035393;28;20196;-83
2023/07/29 02:06:22;;;;;;;1.40;1.30;;;22.30;64.90;;;;;;5035941;28;20210;-83
2023/07/29 02:08:50;;;;;;;4.28;1.38;;;22.30;64.90;;;;;;5036288;28;20193;-83
2023/07/29 02:11:17;;;;;;;2.53;1.23;;;22.40;65.20;;;;;;5046647;28;20250;-83
2023/07/29 02:13:44;;;;;;;1.13;1.02;;;22.40;65.20;;;;;;5034981;28;20212;-83
2023/07/29 02:16:12;;;;;;;1.10;1.00;;;22.30;65.90;;;;;;5035074;28;20208;-83
2023/07/29 02:18:40;;;;;;;1.20;1.10;;;22.30;65.00;;;;;;5035339;28;20200;-83
2023/07/29 02:21:08;;;;;;;2.20;1.10;;;22.30;64.90;;;;;;5034758;28;20216;-83
2023/07/29 02:23:35;;;;;;;2.40;1.20;;;22.30;64.90;;;;;;5035119;28;20199;-83
2023/07/29 02:26:02;;;;;;;1.85;1.20;;;22.30;65.00;;;;;;5034799;28;20690;-83
2023/07/29 02:28:29;;;;;;;1.35;1.25;;;22.30;65.00;;;;;;5034794;28;20216;-83
2023/07/29 02:31:13;;;;;;;1.10;1.10;;;22.30;65.00;;;;;;5034610;28;20220;-83
2023/07/29 02:33:40;;;;;;;1.23;1.15;;;22.30;65.00;;;;;;5034989;28;20222;-83
2023/07/29 02:36:07;;;;;;;1.27;1.17;;;22.30;65.00;;;;;;5035026;28;20278;-83
2023/07/29 02:38:34;;;;;;;1.20;1.15;;;22.30;65.00;;;;;;5035287;28;20246;-83
2023/07/29 02:41:02;;;;;;;1.35;1.25;;;22.30;64.90;;;;;;5035168;28;20239;-83
2023/07/29 02:43:29;;;;;;;1.23;1.13;;;22.30;64.90;;;;;;5036253;28;20512;-83
2023/07/29 02:45:56;;;;;;;1.52;1.17;;;22.30;65.00;;;;;;5035341;28;20224;-83
2023/07/29 02:48:25;;;;;;;1.10;1.10;;;22.30;65.00;;;;;;5034609;28;20198;-83
2023/07/29 02:50:53;;;;;;;1.38;1.27;;;22.30;65.00;;;;;;5034698;28;20224;-83
2023/07/29 02:53:20;;;;;;;1.40;1.30;;;22.30;65.00;;;;;;5034380;28;20344;-83
2023/07/29 02:55:47;;;;;;;1.98;1.30;;;22.30;65.00;;;;;;5034557;28;20581;-83
2023/07/29 02:58:14;;;;;;;1.23;1.13;;;22.30;65.00;;;;;;5018330;28;20254;-83
2023/07/29 03:00:41;;;;;;;1.48;1.38;;;22.30;65.00;;;;;;5034538;28;20220;-83
2023/07/29 03:03:09;;;;;;;1.83;1.38;;;22.30;65.10;;;;;;5034914;28;20279;-83
2023/07/29 03:05:38;;;;;;;2.35;1.50;;;22.30;65.00;;;;;;5034954;28;20632;-83
2023/07/29 03:08:05;;;;;;;3.78;1.40;;;22.30;65.20;;;;;;5034456;28;20666;-83
2023/07/29 03:10:32;;;;;;;1.75;1.30;;;22.30;65.10;;;;;;5017935;28;20227;-83
2023/07/29 03:12:59;;;;;;;1.10;1.10;;;22.30;65.20;;;;;;5018009;28;20196;-83
2023/07/29 03:15:26;;;;;;;1.23;1.13;;;22.30;65.20;;;;;;5033755;28;20307;-83
2023/07/29 03:17:53;;;;;;;1.23;1.08;;;22.30;64.90;;;;;;5034147;28;20196;-83
2023/07/29 03:20:21;;;;;;;1.17;1.10;;;22.30;64.80;;;;;;5034418;28;20242;-83
2023/07/29 03:22:49;;;;;;;2.65;1.20;;;22.30;64.80;;;;;;5034307;28;20203;-83
2023/07/29 03:25:17;;;;;;;1.73;1.20;;;22.40;64.80;;;;;;5017986;28;20192;-83
2023/07/29 03:27:44;;;;;;;1.38;1.27;;;22.50;64.40;;;;;;5018082;28;20202;-83
2023/07/29 03:30:12;;;;;;;1.17;1.10;;;22.60;64.40;;;;;;5034332;28;20220;-83
2023/07/29 03:32:44;;;;;;;1.42;1.20;;;22.70;63.90;;;;;;5034082;28;20729;-83
2023/07/29 03:35:11;;;;;;;1.20;1.10;;;22.70;63.80;;;;;;5034264;28;20214;-83
2023/07/29 03:37:38;;;;;;;1.50;1.30;;;22.80;63.40;;;;;;5045115;28;20180;-82
2023/07/29 03:40:08;;;;;;;1.17;1.10;;;22.70;63.30;;;;;;5056104;28;20267;-82
2023/07/29 03:42:35;;;;;;;1.27;1.17;;;22.80;63.20;;;;;;5057096;28;20339;-82
2023/07/29 03:45:03;;;;;;;1.30;1.20;;;22.80;63.10;;;;;;5057528;28;20210;-83
2023/07/29 03:47:31;;;;;;;1.17;1.08;;;22.70;62.90;;;;;;5042857;28;20207;-83
2023/07/29 03:49:59;;;;;;;1.40;1.30;;;22.80;63.20;;;;;;5035481;28;20223;-83
2023/07/29 03:52:26;;;;;;;1.80;1.10;;;22.80;63.20;;;;;;5034645;28;20236;-83
2023/07/29 03:54:53;;;;;;;1.38;1.10;;;22.80;63.20;;;;;;5033352;28;20216;-83
2023/07/29 03:57:21;;;;;;;2.65;1.30;;;22.70;63.30;;;;;;5033568;28;20191;-83
2023/07/29 03:59:48;;;;;;;1.30;1.20;;;22.70;63.30;;;;;;5033066;28;20204;-83
2023/07/29 04:02:16;;;;;;;2.10;1.20;;;22.70;63.30;;;;;;5033335;28;20561;-83
2023/07/29 04:04:47;;;;;;;4.28;1.20;;;22.70;63.30;;;;;;5032621;28;20193;-83
2023/07/29 04:07:14;;;;;;;1.20;1.10;;;22.70;63.30;;;;;;5033538;28;20244;-83
2023/07/29 04:09:43;;;;;;;1.40;1.30;;;22.70;63.40;;;;;;5034308;28;20195;-83
2023/07/29 04:12:10;;;;;;;2.15;1.10;;;22.70;63.40;;;;;;5036008;28;20274;-83
2023/07/29 04:14:39;;;;;;;1.30;1.20;;;22.70;63.50;;;;;;5034128;28;20219;-83
2023/07/29 04:17:06;;;;;;;1.10;1.10;;;22.60;63.40;;;;;;5034064;28;20601;-83
2023/07/29 04:19:33;;;;;;;1.90;1.27;;;22.60;63.50;;;;;;5033915;28;20204;-83
2023/07/29 04:22:02;;;;;;;1.73;1.27;;;22.70;63.70;;;;;;5033664;28;20302;-83
2023/07/29 04:24:29;;;;;;;1.10;1.08;;;22.70;63.70;;;;;;5033652;28;20200;-83
2023/07/29 04:26:56;;;;;;;1.58;1.40;;;22.70;63.70;;;;;;5033429;28;20203;-83
2023/07/29 04:29:24;;;;;;;2.75;1.27;;;22.60;63.60;;;;;;5033440;28;20200;-83
2023/07/29 04:31:52;;;;;;;2.40;1.40;;;22.60;63.70;;;;;;5033689;28;20220;-83
2023/07/29 04:34:20;;;;;;;2.00;1.20;;;22.60;63.80;;;;;;5040723;28;20204;-83
2023/07/29 04:36:47;;;;;;;3.20;1.15;;;22.60;63.70;;;;;;5035699;28;20634;-83
2023/07/29 04:39:14;;;;;;;1.95;1.27;;;22.60;63.90;;;;;;5033760;28;20195;-83
2023/07/29 04:41:41;;;;;;;1.70;1.30;;;22.60;63.90;;;;;;5033314;28;20722;-83
2023/07/29 04:44:08;;;;;;;2.00;1.30;;;22.60;64.00;;;;;;5033485;28;20211;-83
2023/07/29 04:46:36;;;;;;;2.80;1.30;;;22.60;64.00;;;;;;5033974;28;20203;-83
2023/07/29 04:49:04;;;;;;;2.53;1.33;;;22.70;64.20;;;;;;5033749;28;20612;-83
2023/07/29 04:51:31;;;;;;;2.25;1.30;;;22.60;64.10;;;;;;5033253;28;20614;-83
2023/07/29 04:53:59;;;;;;;2.85;1.38;;;22.60;64.20;;;;;;5033645;28;20203;-83
2023/07/29 04:56:26;;;;;;;2.55;1.50;;;22.60;64.20;;;;;;5034469;28;20202;-83
2023/07/29 04:58:54;;;;;;;1.92;1.40;;;22.60;64.20;;;;;;5033694;28;20202;-83
2023/07/29 05:01:20;;;;;;;1.77;1.40;;;22.60;64.30;;;;;;5033549;28;20657;-83
2023/07/29 05:03:48;;;;;;;1.45;1.13;;;22.60;64.30;;;;;;5033249;28;20198;-83
2023/07/29 05:06:16;;;;;;;1.67;1.38;;;22.60;64.40;;;;;;5033470;28;20192;-83
2023/07/29 05:08:43;;;;;;;1.95;1.40;;;22.60;64.50;;;;;;5033361;28;20221;-83
2023/07/29 05:11:11;;;;;;;1.60;1.40;;;22.60;64.60;;;;;;5033539;28;20299;-83
2023/07/29 05:13:38;;;;;;;1.65;1.55;;;22.60;64.60;;;;;;5035855;28;20199;-83
2023/07/29 05:16:06;;;;;;;1.88;1.38;;;22.60;64.70;;;;;;5038405;28;20230;-83
2023/07/29 05:18:34;;;;;;;2.90;1.40;;;22.60;64.70;;;;;;5040046;28;20219;-83
2023/07/29 05:21:01;;;;;;;2.15;1.60;;;22.60;64.80;;;;;;5040257;28;20269;-83
2023/07/29 05:23:29;;;;;;;2.38;1.50;;;22.60;64.90;;;;;;5038852;28;20242;-83
2023/07/29 05:25:57;;;;;;;2.75;1.65;;;22.60;64.90;;;;;;5039879;28;20231;-83
2023/07/29 05:28:24;;;;;;;2.35;1.60;;;22.60;65.00;;;;;;5039456;28;20282;-83
2023/07/29 05:30:51;;;;;;;2.30;1.52;;;22.60;65.10;;;;;;5036808;28;20228;-83
2023/07/29 05:33:18;;;;;;;2.15;1.40;;;22.60;65.20;;;;;;5036026;28;20222;-83
2023/07/29 05:35:47;;;;;;;2.55;1.58;;;22.60;65.20;;;;;;5036170;28;20220;-83
2023/07/29 05:38:14;;;;;;;2.50;1.50;;;22.60;65.20;;;;;;5036749;28;20261;-83
2023/07/29 05:40:43;;;;;;;2.08;1.80;;;22.60;65.30;;;;;;5044356;28;20232;-83
2023/07/29 05:43:10;;;;;;;2.13;1.40;;;22.50;65.30;;;;;;5038577;28;20207;-83
2023/07/29 05:45:38;;;;;;;2.55;1.70;;;22.60;66.20;;;;;;5037137;28;20196;-83
2023/07/29 05:48:05;;;;;;;3.78;1.90;;;22.50;65.40;;;;;;5035376;28;20227;-83
2023/07/29 05:50:33;;;;;;;2.70;1.75;;;22.50;65.40;;;;;;5035532;28;20223;-83
2023/07/29 05:53:00;;;;;;;3.20;1.50;;;22.60;65.50;;;;;;5035938;28;20238;-83
2023/07/29 05:55:28;;;;;;;1.80;1.45;;;22.60;65.50;;;;;;5035659;28;20303;-83
2023/07/29 05:57:57;;;;;;;2.13;1.55;;;22.60;65.50;;;;;;5019358;28;20227;-83
2023/07/29 06:00:24;;;;;;;2.75;1.80;;;22.70;65.60;;;;;;5036098;28;20262;-83
2023/07/29 06:02:52;;;;;;;2.22;1.40;;;22.60;65.60;;;;;;5036268;28;20206;-83
2023/07/29 06:05:21;;;;;;;1.50;1.40;;;22.70;65.60;;;;;;5036095;28;20283;-83
2023/07/29 06:07:49;;;;;;;1.73;1.50;;;22.70;65.50;;;;;;5035812;28;20235;-82
2023/07/29 06:10:18;;;;;;;1.70;1.60;;;22.70;65.40;;;;;;5035660;28;20228;-82
2023/07/29 06:12:46;;;;;;;1.85;1.42;;;22.80;65.30;;;;;;5037183;28;20513;-82
2023/07/29 06:15:15;;;;;;;1.55;1.30;;;22.90;65.20;;;;;;5069060;22;20224;-79
2023/07/29 06:17:42;;;;;;;2.13;1.60;;;23.00;64.70;;;;;;5018200;28;20192;-79
2023/07/29 06:20:09;;;;;;;2.17;1.52;;;23.10;64.20;;;;;;5019532;28;20212;-79
2023/07/29 06:22:37;;;;;;;2.53;1.58;;;23.20;64.00;;;;;;5018453;28;20196;-79
2023/07/29 06:25:05;;;;;;;1.77;1.63;;;23.30;63.70;;;;;;5018163;28;20200;-78
2023/07/29 06:27:32;;;;;;;1.52;1.40;;;23.30;63.60;;;;;;5035433;28;20185;-78
2023/07/29 06:30:00;;;;;;;2.20;1.50;;;23.40;63.40;;;;;;5018488;28;20299;-78
2023/07/29 06:32:29;;;;;;;1.67;1.50;;;23.40;63.30;;;;;;5018065;28;20200;-78
2023/07/29 06:34:56;;;;;;;2.33;1.45;;;23.40;63.10;;;;;;5017683;28;20619;-78
2023/07/29 06:37:23;;;;;;;2.38;1.67;;;23.50;63.10;;;;;;5018243;28;20220;-78
2023/07/29 06:39:50;;;;;;;1.95;1.70;;;23.50;63.10;;;;;;5017583;28;20215;-78
2023/07/29 06:42:17;;;;;;;2.85;1.60;;;23.50;63.00;;;;;;5017779;28;20275;-78
2023/07/29 06:44:45;;;;;;;1.85;1.55;;;23.50;62.90;;;;;;5017792;28;20196;-78
2023/07/29 06:47:12;;;;;;;1.52;1.40;;;23.50;63.70;;;;;;5017957;28;20191;-78
2023/07/29 06:49:41;;;;;;;2.08;1.58;;;23.50;63.10;;;;;;5035472;28;20222;-78
2023/07/29 06:52:08;;;;;;;2.05;1.40;;;23.50;63.30;;;;;;5017939;28;20216;-78
2023/07/29 06:54:36;;;;;;;1.73;1.63;;;23.50;63.40;;;;;;5035750;28;20278;-78
2023/07/29 06:57:02;;;;;;;2.35;1.70;;;23.40;63.70;;;;;;5035521;28;20191;-78
2023/07/29 06:59:30;;;;;;;1.70;1.60;;;23.40;63.80;;;;;;5017446;28;20583;-78
2023/07/29 07:01:57;;;;;;;2.03;1.63;;;23.40;64.00;;;;;;5017396;28;20281;-78
2023/07/29 07:04:24;;;;;;;2.85;1.70;;;23.40;64.10;;;;;;5017374;28;20211;-78
2023/07/29 07:06:52;;;;;;;1.60;1.50;;;23.30;64.10;;;;;;5017578;28;20196;-78
2023/07/29 07:09:20;;;;;;;2.05;1.70;;;23.30;64.30;;;;;;5017504;28;20378;-78
2023/07/29 07:11:47;;;;;;;2.10;1.67;;;23.40;64.60;;;;;;5017343;28;20216;-78
2023/07/29 07:14:14;;;;;;;2.47;1.73;;;23.40;64.60;;;;;;5017734;28;20235;-79
2023/07/29 07:16:42;;;;;;;2.33;1.63;;;23.30;64.60;;;;;;5017357;28;20254;-79
2023/07/29 07:19:09;;;;;;;2.65;1.83;;;23.40;64.70;;;;;;5017357;28;20206;-78
2023/07/29 07:21:37;;;;;;;4.13;1.67;;;23.30;64.60;;;;;;5017837;28;20243;-78
2023/07/29 07:24:05;;;;;;;1.98;1.77;;;23.30;65.30;;;;;;5017336;28;20192;-78
2023/07/29 07:26:33;;;;;;;1.98;1.70;;;23.40;64.90;;;;;;5035265;28;20639;-78
2023/07/29 07:29:00;;;;;;;1.90;1.67;;;23.30;64.90;;;;;;5001162;28;20195;-78
2023/07/29 07:31:27;;;;;;;1.77;1.58;;;23.30;65.00;;;;;;5035069;28;20208;-78
2023/07/29 07:33:54;;;;;;;2.55;1.70;;;23.30;65.20;;;;;;5017458;28;20287;-78
2023/07/29 07:36:21;;;;;;;1.90;1.63;;;23.30;65.20;;;;;;5018511;28;20228;-78
2023/07/29 07:38:48;;;;;;;2.03;1.40;;;23.30;65.20;;;;;;5017195;28;20742;-78
2023/07/29 07:41:17;;;;;;;1.85;1.50;;;23.30;65.30;;;;;;5017940;28;20311;-78
2023/07/29 07:43:44;;;;;;;3.67;1.70;;;23.30;65.30;;;;;;5017232;28;20196;-78
2023/07/29 07:46:11;;;;;;;3.38;1.55;;;23.30;65.20;;;;;;5016914;28;20547;-78
2023/07/29 07:48:39;;;;;;;2.42;1.80;;;23.40;65.20;;;;;;5017741;28;20214;-78
2023/07/29 07:51:13;;;;;;;2.10;1.90;;;23.40;65.20;;;;;;5021065;28;20216;-77
2023/07/29 07:53:40;;;;;;;3.35;1.70;;;23.40;65.10;;;;;;5003670;28;20219;-78
2023/07/29 07:56:07;;;;;;;2.05;1.60;;;23.40;65.20;;;;;;5035556;28;20246;-77
2023/07/29 07:58:36;;;;;;;2.33;1.85;;;23.40;65.10;;;;;;5037273;28;20204;-79
2023/07/29 08:01:04;;;;;;;4.28;1.63;;;23.40;65.20;;;;;;5019389;28;20216;-78
2023/07/29 08:03:31;;;;;;;2.10;1.90;;;23.50;65.20;;;;;;5017555;28;20215;-78
2023/07/29 08:05:58;;;;;;;3.08;1.70;;;23.50;65.10;;;;;;5018507;28;20200;-78
2023/07/29 08:08:26;;;;;;;1.98;1.83;;;23.50;65.00;;;;;;5001170;28;20196;-78
2023/07/29 08:10:53;;;;;;;1.80;1.70;;;23.50;65.10;;;;;;5016865;28;20702;-78
2023/07/29 08:13:20;;;;;;;1.60;1.50;;;23.50;64.90;;;;;;5001239;28;20203;-77
2023/07/29 08:15:50;;;;;;;1.58;1.35;;;23.50;64.90;;;;;;5035370;28;20219;-77
2023/07/29 08:18:17;;;;;;;2.15;1.70;;;23.50;65.00;;;;;;5034769;28;20267;-77
2023/07/29 08:20:52;;;;;;;3.20;1.50;;;23.50;64.50;;;;;;5016946;28;20243;-78
2023/07/29 08:23:19;;;;;;;1.38;1.27;;;23.60;64.50;;;;;;5016309;28;20198;-78
2023/07/29 08:25:52;;;;;;;1.65;1.40;;;23.70;64.50;;;;;;5034437;28;20198;-78
2023/07/29 08:28:20;;;;;;;1.90;1.77;;;23.80;64.20;;;;;;5017197;28;20208;-79
2023/07/29 08:30:49;;;;;;;1.70;1.60;;;23.80;64.50;;;;;;5016622;28;20223;-78
2023/07/29 08:33:16;;;;;;;1.83;1.55;;;23.80;64.80;;;;;;5015921;28;20276;-78
2023/07/29 08:35:42;;;;;;;1.83;1.50;;;23.90;64.60;;;;;;5016464;28;20216;-78
2023/07/29 08:38:09;;;;;;;2.88;1.83;;;23.90;64.70;;;;;;5016197;28;20204;-78
2023/07/29 08:40:37;;;;;;;1.92;1.70;;;23.90;67.30;;;;;;4999850;28;20307;-78
2023/07/29 08:43:05;;;;;;;2.72;1.70;;;24.00;67.70;;;;;;5016482;28;20200;-78
2023/07/29 08:45:34;;;;;;;2.87;1.90;;;24.00;68.60;;;;;;5015623;28;20525;-78
2023/07/29 08:48:03;;;;;;;2.45;1.83;;;24.00;69.40;;;;;;5016981;28;20819;-78
2023/07/29 08:50:30;;;;;;;26.77;15.00;;;24.10;69.60;;;;;;5017954;28;20216;-78
2023/07/29 08:52:58;;;;;;;25.08;15.32;;;24.10;69.70;;;;;;5020382;28;20204;-78
2023/07/29 08:55:25;;;;;;;105.35;70.03;;;24.20;69.90;;;;;;5003045;28;20807;-77
2023/07/29 08:57:51;;;;;;;28.58;19.67;;;24.20;70.00;;;;;;5004026;28;20200;-77
2023/07/29 09:00:18;;;;;;;15.77;9.65;;;24.30;69.20;;;;;;5020401;28;20220;-79
2023/07/29 09:02:45;;;;;;;9.65;5.50;;;24.50;69.90;;;;;;5020196;28;20195;-78
2023/07/29 09:05:14;;;;;;;5.57;4.00;;;24.70;69.40;;;;;;5019965;28;20204;-77
2023/07/29 09:07:41;;;;;;;4.60;3.15;;;24.90;68.00;;;;;;5019737;28;20200;-77
2023/07/29 09:10:10;;;;;;;3.67;2.55;;;25.10;68.40;;;;;;5004032;28;20298;-77
2023/07/29 09:12:37;;;;;;;2.13;1.92;;;25.20;67.80;;;;;;5020792;28;20200;-77
2023/07/29 09:15:05;;;;;;;2.15;1.83;;;25.20;66.80;;;;;;5024988;28;20204;-77
2023/07/29 09:17:32;;;;;;;2.25;2.05;;;25.20;67.40;;;;;;5011218;28;20230;-77
2023/07/29 09:19:59;;;;;;;2.08;1.88;;;25.20;68.00;;;;;;5019425;28;20581;-77
2023/07/29 09:22:28;;;;;;;2.60;1.83;;;25.10;68.10;;;;;;5019490;28;20215;-77
2023/07/29 09:24:55;;;;;;;4.20;1.83;;;25.10;66.80;;;;;;5019385;28;20245;-77
2023/07/29 09:27:26;;;;;;;3.60;2.17;;;25.00;67.90;;;;;;5019801;28;20250;-77
2023/07/29 09:29:54;;;;;;;2.00;1.85;;;25.00;69.00;;;;;;5019723;28;20200;-77
2023/07/29 09:32:22;;;;;;;4.00;2.22;;;25.00;68.20;;;;;;5019613;28;20196;-78
2023/07/29 09:34:49;;;;;;;1.80;1.70;;;25.00;68.00;;;;;;5019776;28;20195;-78
2023/07/29 09:37:21;;;;;;;3.40;1.77;;;25.00;67.30;;;;;;5019488;28;20223;-78
2023/07/29 09:39:50;;;;;;;1.83;1.73;;;25.10;68.40;;;;;;5019116;28;20622;-78
2023/07/29 09:42:19;;;;;;;2.28;1.88;;;25.10;68.90;;;;;;5019162;28;20203;-78
2023/07/29 09:44:46;;;;;;;2.10;1.90;;;25.00;69.10;;;;;;5019914;28;20227;-78
2023/07/29 09:47:21;;;;;;;2.03;1.60;;;25.00;68.20;;;;;;5019583;28;20303;-78
2023/07/29 09:49:48;;;;;;;2.38;1.98;;;25.00;67.50;;;;;;5019802;28;20245;-78
2023/07/29 09:52:16;;;;;;;2.00;1.90;;;25.00;68.00;;;;;;5020188;28;20254;-77
2023/07/29 09:54:43;;;;;;;2.20;2.00;;;25.10;67.40;;;;;;5002884;28;20254;-78
2023/07/29 09:57:12;;;;;;;3.72;2.10;;;25.10;67.00;;;;;;5036482;28;20221;-79
2023/07/29 09:59:39;;;;;;;1.95;1.85;;;25.10;66.80;;;;;;5018781;28;20226;-79
2023/07/29 10:02:07;;;;;;;1.92;1.83;;;25.10;67.10;;;;;;5018393;28;20220;-79
2023/07/29 10:04:34;;;;;;;2.03;1.83;;;25.10;67.80;;;;;;5018876;28;20200;-79
2023/07/29 10:07:01;;;;;;;2.28;1.90;;;25.00;68.40;;;;;;5019137;28;20730;-79
2023/07/29 10:09:29;;;;;;;3.20;1.98;;;25.10;67.10;;;;;;5019303;28;20226;-78
2023/07/29 10:11:56;;;;;;;1.80;1.50;;;25.10;67.10;;;;;;5018708;28;20224;-78
2023/07/29 10:14:24;;;;;;;1.83;1.73;;;25.40;66.20;;;;;;5019341;28;20304;-79
2023/07/29 10:16:51;;;;;;;1.63;1.52;;;25.50;64.90;;;;;;5024848;28;20216;-79
2023/07/29 10:19:19;;;;;;;1.60;1.45;;;25.60;64.50;;;;;;5026669;28;20263;-76
2023/07/29 10:21:46;;;;;;;2.85;1.80;;;25.70;64.10;;;;;;5036887;28;20211;-76
2023/07/29 10:24:16;;;;;;;2.10;1.83;;;25.80;65.10;;;;;;5018821;28;20555;-77
2023/07/29 10:26:43;;;;;;;1.80;1.70;;;25.70;62.90;;;;;;5019194;28;20583;-76
2023/07/29 10:29:10;;;;;;;1.73;1.63;;;25.70;63.70;;;;;;5018792;28;20200;-77
2023/07/29 10:31:40;;;;;;;2.13;1.88;;;25.80;62.20;;;;;;5018782;28;20215;-78
2023/07/29 10:34:07;;;;;;;1.80;1.70;;;25.90;61.90;;;;;;5019705;28;20207;-79
2023/07/29 10:36:34;;;;;;;2.03;1.83;;;26.00;62.70;;;;;;5019369;28;20223;-80
2023/07/29 10:39:01;;;;;;;2.22;1.75;;;26.10;61.90;;;;;;5019464;28;20210;-78
2023/07/29 10:41:55;;;;;;;4.10;2.00;;;26.20;60.10;;;;;;5019983;28;20222;-80
2023/07/29 10:44:52;;;;;;;2.13;1.80;;;26.20;60.00;;;;;;5019727;28;20187;-78
2023/07/29 10:47:23;;;;;;;2.10;1.90;;;26.30;59.50;;;;;;5028728;28;20191;-77
2023/07/29 10:49:52;;;;;;;2.15;1.80;;;26.40;59.40;;;;;;5019221;28;20665;-79
2023/07/29 10:52:29;;;;;;;1.70;1.60;;;26.40;58.70;;;;;;5019165;28;20270;-79
2023/07/29 10:54:58;;;;;;;1.98;1.73;;;26.40;58.20;;;;;;5019290;28;20191;-75
2023/07/29 10:57:31;;;;;;;2.45;1.50;;;26.50;58.30;;;;;;5019232;28;20219;-77
2023/07/29 10:59:58;;;;;;;1.92;1.83;;;26.50;58.50;;;;;;5002358;28;20282;-77
2023/07/29 11:02:31;;;;;;;1.90;1.70;;;26.50;58.30;;;;;;5018533;28;20253;-78
2023/07/29 11:04:58;;;;;;;2.05;1.85;;;26.60;58.10;;;;;;5018483;28;20218;-78
2023/07/29 11:07:28;;;;;;;1.70;1.60;;;26.60;58.20;;;;;;5018752;28;20192;-77
2023/07/29 11:10:00;;;;;;;2.75;1.60;;;26.60;58.20;;;;;;5019655;28;20198;-78
2023/07/29 11:12:45;;;;;;;2.50;1.70;;;26.50;58.90;;;;;;5017938;28;20962;-78
2023/07/29 11:15:23;;;;;;;1.73;1.63;;;26.50;58.90;;;;;;5019151;28;20218;-78
2023/07/29 11:17:52;;;;;;;2.35;1.60;;;26.50;60.00;;;;;;5022354;28;20211;-78
2023/07/29 11:20:20;;;;;;;1.60;1.50;;;26.50;59.50;;;;;;5021157;28;20272;-78
2023/07/29 11:22:46;;;;;;;2.20;1.58;;;26.50;58.70;;;;;;5019351;28;20207;-78
2023/07/29 11:25:15;;;;;;;2.17;1.40;;;26.50;59.00;;;;;;5019704;28;20511;-78
2023/07/29 11:27:41;;;;;;;2.45;1.40;;;26.50;59.40;;;;;;5017504;28;20195;-78
2023/07/29 11:30:09;;;;;;;1.85;1.67;;;26.50;59.60;;;;;;5017464;28;20212;-77
2023/07/29 11:32:37;;;;;;;1.63;1.52;;;26.60;59.40;;;;;;5017749;28;20202;-77
2023/07/29 11:35:07;;;;;;;2.00;1.90;;;26.60;58.60;;;;;;5017858;28;20206;-77
2023/07/29 11:37:34;;;;;;;2.30;1.80;;;26.60;59.10;;;;;;5035068;28;20662;-77
2023/07/29 11:40:02;;;;;;;1.80;1.70;;;26.60;58.10;;;;;;5017449;28;20191;-77
2023/07/29 11:42:29;;;;;;;2.70;1.85;;;26.60;58.60;;;;;;5017191;28;20290;-77
2023/07/29 11:44:58;;;;;;;1.80;1.70;;;26.50;58.40;;;;;;5017155;28;20336;-75
2023/07/29 11:47:26;;;;;;;3.95;1.60;;;26.60;58.40;;;;;;5017504;28;20191;-75
2023/07/29 11:49:52;;;;;;;1.70;1.60;;;26.60;58.40;;;;;;5016927;28;20222;-75
2023/07/29 11:52:21;;;;;;;1.83;1.70;;;26.60;58.40;;;;;;5017081;28;20197;-75
2023/07/29 11:54:49;;;;;;;1.75;1.65;;;26.50;58.50;;;;;;5017753;28;20208;-76
2023/07/29 11:57:18;;;;;;;1.70;1.60;;;26.60;58.40;;;;;;5017772;28;20682;-76
2023/07/29 11:59:45;;;;;;;1.70;1.60;;;26.60;58.00;;;;;;5016812;28;20290;-76
2023/07/29 12:02:13;;;;;;;2.05;1.75;;;26.60;58.20;;;;;;5016815;28;20709;-76
2023/07/29 12:04:40;;;;;;;1.67;1.58;;;26.60;58.20;;;;;;5016806;28;20609;-76
2023/07/29 12:07:07;;;;;;;1.90;1.70;;;26.60;58.00;;;;;;5017108;28;20192;-76
2023/07/29 12:09:36;;;;;;;1.85;1.75;;;26.60;57.80;;;;;;5017100;28;20668;-76
2023/07/29 12:12:03;;;;;;;1.60;1.50;;;26.60;57.70;;;;;;5016530;28;20226;-76
2023/07/29 12:14:30;;;;;;;1.98;1.60;;;26.60;57.70;;;;;;5139794;22;20205;-78
2023/07/29 12:16:57;;;;;;;1.63;1.52;;;26.60;57.90;;;;;;5017190;28;20294;-80
2023/07/29 12:19:25;;;;;;;1.75;1.65;;;26.60;57.60;;;;;;5017101;28;20199;-78
2023/07/29 12:21:51;;;;;;;3.30;1.90;;;26.60;58.20;;;;;;5017339;28;20679;-79
2023/07/29 12:24:19;;;;;;;1.83;1.70;;;26.60;57.40;;;;;;5017254;28;20253;-79
2023/07/29 12:26:48;;;;;;;1.70;1.60;;;26.60;57.40;;;;;;5016967;28;20223;-79
2023/07/29 12:29:16;;;;;;;1.70;1.55;;;26.60;57.40;;;;;;5018186;28;20195;-80
2023/07/29 12:31:43;;;;;;;1.60;1.50;;;26.60;57.50;;;;;;5017587;28;20701;-78
2023/07/29 12:36:51;;;;;;;1.70;1.60;;;26.50;57.40;;;;;;5029450;28;20745;-78
2023/07/29 12:39:22;;;;;;;3.45;1.70;;;26.50;57.30;;;;;;5032549;28;20195;-79
2023/07/29 12:41:51;;;;;;;1.80;1.70;;;26.50;57.50;;;;;;5016545;28;20229;-78
2023/07/29 12:44:18;;;;;;;1.88;1.67;;;26.50;57.40;;;;;;5033340;28;20191;-78
2023/07/29 12:46:45;;;;;;;2.03;1.60;;;26.50;57.50;;;;;;5027110;28;20210;-78
2023/07/29 12:49:12;;;;;;;1.98;1.77;;;26.50;57.50;;;;;;5032794;28;20196;-81
2023/07/29 12:51:39;;;;;;;1.90;1.80;;;26.50;57.40;;;;;;5016542;28;20223;-80